sensor_id;sensor_type;location;lat;lon;timestamp;pressure;altitude;pressure_sealevel;temperature;humidity
37304;BME280;23188;51.188;16.374;2023-05-15T00:01:31;99816.25;;;14.99;100.00
37304;BME280;23188;51.188;16.374;2023-05-15T00:05:33;99805.23;;;15.02;100.00
37304;BME280;23188;51.188;16.374;2023-05-15T00:09:35;99804.23;;;15.02;100.00
37304;BME280;23188;51.188;16.374;2023-05-15T00:13:37;99800.35;;;14.79;100.00
37304;BME280;23188;51.188;16.374;2023-05-15T00:17:39;99791.03;;;14.57;100.00
37304;BME280;23188;51.188;16.374;2023-05-15T00:21:41;99791.25;;;14.47;100.00
37304;BME280;23188;51.188;16.374;2023-05-15T00:25:43;99784.13;;;14.53;100.00
37304;BME280;23188;51.188;16.374;2023-05-15T00:29:45;99782.48;;;14.56;100.00
37304;BME280;23188;51.188;16.374;2023-05-15T00:33:47;99778.73;;;14.47;100.00
37304;BME280;23188;51.188;16.374;2023-05-15T00:37:49;99772.89;;;14.43;100.00
37304;BME280;23188;51.188;16.374;2023-05-15T00:41:52;99767.94;;;14.33;100.00
37304;BME280;23188;51.188;16.374;2023-05-15T00:45:54;99761.13;;;14.18;100.00
37304;BME280;23188;51.188;16.374;2023-05-15T00:49:56;99750.10;;;14.07;100.00
37304;BME280;23188;51.188;16.374;2023-05-15T00:53:58;99744.00;;;14.02;100.00
37304;BME280;23188;51.188;16.374;2023-05-15T00:58:02;99730.76;;;13.98;100.00
37304;BME280;23188;51.188;16.374;2023-05-15T01:02:04;99724.40;;;13.89;100.00
37304;BME280;23188;51.188;16.374;2023-05-15T01:06:06;99714.11;;;13.85;100.00
37304;BME280;23188;51.188;16.374;2023-05-15T01:10:08;99704.23;;;13.78;100.00
37304;BME280;23188;51.188;16.374;2023-05-15T01:14:11;99698.29;;;13.72;100.00
37304;BME280;23188;51.188;16.374;2023-05-15T01:18:14;99689.48;;;13.66;100.00
37304;BME280;23188;51.188;16.374;2023-05-15T01:31:08;99670.66;;;13.67;100.00
37304;BME280;23188;51.188;16.374;2023-05-15T01:35:15;99666.28;;;13.68;100.00
37304;BME280;23188;51.188;16.374;2023-05-15T01:39:20;99664.71;;;13.71;100.00
37304;BME280;23188;51.188;16.374;2023-05-15T01:43:28;99668.36;;;13.74;100.00
37304;BME280;23188;51.188;16.374;2023-05-15T01:47:43;99663.26;;;13.74;100.00
37304;BME280;23188;51.188;16.374;2023-05-15T01:51:49;99676.35;;;13.78;100.00
37304;BME280;23188;51.188;16.374;2023-05-15T01:55:55;99687.73;;;13.92;100.00
37304;BME280;23188;51.188;16.374;2023-05-15T01:59:58;99682.88;;;14.06;100.00
37304;BME280;23188;51.188;16.374;2023-05-15T02:04:00;99660.01;;;14.04;100.00
37304;BME280;23188;51.188;16.374;2023-05-15T02:08:04;99636.52;;;13.92;100.00
37304;BME280;23188;51.188;16.374;2023-05-15T02:12:06;99633.09;;;13.86;100.00
37304;BME280;23188;51.188;16.374;2023-05-15T02:16:08;99630.09;;;13.84;100.00
37304;BME280;23188;51.188;16.374;2023-05-15T02:20:10;99625.92;;;13.83;100.00
37304;BME280;23188;51.188;16.374;2023-05-15T02:24:12;99615.27;;;13.82;100.00
37304;BME280;23188;51.188;16.374;2023-05-15T02:28:33;99605.77;;;13.76;100.00
37304;BME280;23188;51.188;16.374;2023-05-15T02:36:59;99581.09;;;13.69;100.00
37304;BME280;23188;51.188;16.374;2023-05-15T02:41:03;99571.16;;;13.60;100.00
37304;BME280;23188;51.188;16.374;2023-05-15T02:45:07;99567.05;;;13.51;100.00
37304;BME280;23188;51.188;16.374;2023-05-15T02:49:10;99562.85;;;13.46;100.00
37304;BME280;23188;51.188;16.374;2023-05-15T02:53:12;99557.36;;;13.42;100.00
37304;BME280;23188;51.188;16.374;2023-05-15T02:57:16;99550.14;;;13.35;100.00
37304;BME280;23188;51.188;16.374;2023-05-15T03:01:17;99537.71;;;13.32;100.00
37304;BME280;23188;51.188;16.374;2023-05-15T03:05:19;99530.05;;;13.26;100.00
37304;BME280;23188;51.188;16.374;2023-05-15T03:09:21;99523.90;;;13.21;100.00
37304;BME280;23188;51.188;16.374;2023-05-15T03:13:23;99518.02;;;13.22;100.00
37304;BME280;23188;51.188;16.374;2023-05-15T03:17:25;99512.98;;;13.24;100.00
37304;BME280;23188;51.188;16.374;2023-05-15T03:21:27;99510.82;;;13.26;100.00
37304;BME280;23188;51.188;16.374;2023-05-15T03:25:29;99506.81;;;13.26;100.00
37304;BME280;23188;51.188;16.374;2023-05-15T03:29:31;99504.12;;;13.28;100.00
37304;BME280;23188;51.188;16.374;2023-05-15T03:33:33;99502.94;;;13.29;100.00
37304;BME280;23188;51.188;16.374;2023-05-15T03:37:35;99492.96;;;13.34;100.00
37304;BME280;23188;51.188;16.374;2023-05-15T03:41:37;99486.01;;;13.36;100.00
37304;BME280;23188;51.188;16.374;2023-05-15T03:45:39;99481.13;;;13.30;100.00
37304;BME280;23188;51.188;16.374;2023-05-15T03:49:41;99476.26;;;13.23;100.00
37304;BME280;23188;51.188;16.374;2023-05-15T03:53:43;99476.72;;;13.17;100.00
37304;BME280;23188;51.188;16.374;2023-05-15T03:57:45;99475.65;;;13.18;100.00
37304;BME280;23188;51.188;16.374;2023-05-15T04:01:47;99474.31;;;13.18;100.00
37304;BME280;23188;51.188;16.374;2023-05-15T04:06:06;99477.36;;;13.21;100.00
37304;BME280;23188;51.188;16.374;2023-05-15T04:10:08;99473.85;;;13.24;100.00
37304;BME280;23188;51.188;16.374;2023-05-15T04:14:10;99469.02;;;13.28;100.00
37304;BME280;23188;51.188;16.374;2023-05-15T04:18:11;99458.29;;;13.35;100.00
37304;BME280;23188;51.188;16.374;2023-05-15T04:22:13;99460.38;;;13.37;100.00
37304;BME280;23188;51.188;16.374;2023-05-15T04:26:15;99460.27;;;13.30;100.00
37304;BME280;23188;51.188;16.374;2023-05-15T04:30:17;99458.83;;;13.35;100.00
37304;BME280;23188;51.188;16.374;2023-05-15T04:34:18;99456.47;;;13.41;100.00
37304;BME280;23188;51.188;16.374;2023-05-15T04:38:21;99459.55;;;13.42;100.00
37304;BME280;23188;51.188;16.374;2023-05-15T04:42:22;99454.09;;;13.47;100.00
37304;BME280;23188;51.188;16.374;2023-05-15T04:46:24;99444.62;;;13.47;100.00
37304;BME280;23188;51.188;16.374;2023-05-15T04:50:27;99441.61;;;13.48;100.00
37304;BME280;23188;51.188;16.374;2023-05-15T04:54:28;99440.05;;;13.54;100.00
37304;BME280;23188;51.188;16.374;2023-05-15T04:58:30;99435.42;;;13.63;100.00
37304;BME280;23188;51.188;16.374;2023-05-15T05:02:32;99433.70;;;13.69;100.00
37304;BME280;23188;51.188;16.374;2023-05-15T05:06:34;99432.30;;;13.72;100.00
37304;BME280;23188;51.188;16.374;2023-05-15T05:10:36;99425.42;;;13.73;100.00
37304;BME280;23188;51.188;16.374;2023-05-15T05:14:38;99421.33;;;13.76;100.00
37304;BME280;23188;51.188;16.374;2023-05-15T05:18:42;99416.16;;;13.71;100.00
37304;BME280;23188;51.188;16.374;2023-05-15T05:22:44;99418.60;;;13.72;100.00
37304;BME280;23188;51.188;16.374;2023-05-15T05:26:47;99418.77;;;13.68;100.00
37304;BME280;23188;51.188;16.374;2023-05-15T05:30:48;99415.30;;;13.71;100.00
37304;BME280;23188;51.188;16.374;2023-05-15T05:34:50;99410.35;;;13.67;100.00
37304;BME280;23188;51.188;16.374;2023-05-15T05:38:52;99407.89;;;13.70;100.00
37304;BME280;23188;51.188;16.374;2023-05-15T05:42:53;99408.61;;;13.79;100.00
37304;BME280;23188;51.188;16.374;2023-05-15T05:46:55;99406.54;;;13.81;100.00
37304;BME280;23188;51.188;16.374;2023-05-15T05:50:57;99403.17;;;13.84;100.00
37304;BME280;23188;51.188;16.374;2023-05-15T05:54:59;99394.31;;;13.79;100.00
37304;BME280;23188;51.188;16.374;2023-05-15T05:59:00;99390.04;;;13.72;100.00
37304;BME280;23188;51.188;16.374;2023-05-15T06:03:02;99380.48;;;13.63;100.00
37304;BME280;23188;51.188;16.374;2023-05-15T06:07:04;99369.88;;;13.48;100.00
37304;BME280;23188;51.188;16.374;2023-05-15T06:11:05;99360.73;;;13.41;100.00
37304;BME280;23188;51.188;16.374;2023-05-15T06:15:07;99354.58;;;13.44;100.00
37304;BME280;23188;51.188;16.374;2023-05-15T06:19:09;99352.69;;;13.50;100.00
37304;BME280;23188;51.188;16.374;2023-05-15T06:23:11;99351.44;;;13.48;100.00
37304;BME280;23188;51.188;16.374;2023-05-15T06:27:13;99345.19;;;13.37;100.00
37304;BME280;23188;51.188;16.374;2023-05-15T06:31:15;99346.66;;;13.43;100.00
37304;BME280;23188;51.188;16.374;2023-05-15T06:35:18;99341.70;;;13.52;100.00
37304;BME280;23188;51.188;16.374;2023-05-15T06:39:19;99341.05;;;13.42;100.00
37304;BME280;23188;51.188;16.374;2023-05-15T06:43:21;99332.98;;;13.55;100.00
37304;BME280;23188;51.188;16.374;2023-05-15T06:47:23;99335.43;;;13.68;100.00
37304;BME280;23188;51.188;16.374;2023-05-15T06:51:25;99334.52;;;13.72;100.00
37304;BME280;23188;51.188;16.374;2023-05-15T06:55:27;99330.58;;;13.77;100.00
37304;BME280;23188;51.188;16.374;2023-05-15T06:59:29;99329.75;;;13.76;100.00
37304;BME280;23188;51.188;16.374;2023-05-15T07:03:34;99327.60;;;13.76;100.00
37304;BME280;23188;51.188;16.374;2023-05-15T07:07:36;99327.63;;;13.86;100.00
37304;BME280;23188;51.188;16.374;2023-05-15T07:11:38;99324.11;;;13.84;100.00
37304;BME280;23188;51.188;16.374;2023-05-15T07:15:42;99321.14;;;13.95;100.00
37304;BME280;23188;51.188;16.374;2023-05-15T07:19:43;99318.47;;;13.95;100.00
37304;BME280;23188;51.188;16.374;2023-05-15T07:23:45;99315.50;;;13.91;100.00
37304;BME280;23188;51.188;16.374;2023-05-15T07:27:47;99315.29;;;13.93;100.00
37304;BME280;23188;51.188;16.374;2023-05-15T07:31:49;99310.98;;;13.93;100.00
37304;BME280;23188;51.188;16.374;2023-05-15T07:35:51;99307.20;;;13.95;100.00
37304;BME280;23188;51.188;16.374;2023-05-15T07:39:53;99307.81;;;13.94;100.00
37304;BME280;23188;51.188;16.374;2023-05-15T07:43:56;99300.48;;;14.04;100.00
37304;BME280;23188;51.188;16.374;2023-05-15T07:47:58;99300.04;;;14.18;100.00
37304;BME280;23188;51.188;16.374;2023-05-15T07:52:00;99294.29;;;14.16;100.00
37304;BME280;23188;51.188;16.374;2023-05-15T07:56:03;99294.16;;;14.16;100.00
37304;BME280;23188;51.188;16.374;2023-05-15T08:00:06;99293.67;;;14.12;100.00
37304;BME280;23188;51.188;16.374;2023-05-15T08:04:12;99293.63;;;14.16;100.00
37304;BME280;23188;51.188;16.374;2023-05-15T08:08:14;99287.23;;;14.24;100.00
37304;BME280;23188;51.188;16.374;2023-05-15T08:12:22;99284.88;;;14.29;100.00
37304;BME280;23188;51.188;16.374;2023-05-15T08:16:24;99277.16;;;14.24;100.00
37304;BME280;23188;51.188;16.374;2023-05-15T08:36:31;99262.97;;;14.38;100.00
37304;BME280;23188;51.188;16.374;2023-05-15T08:40:35;99262.45;;;14.44;100.00
37304;BME280;23188;51.188;16.374;2023-05-15T08:44:41;99261.23;;;14.52;100.00
37304;BME280;23188;51.188;16.374;2023-05-15T08:48:42;99260.70;;;14.63;100.00
37304;BME280;23188;51.188;16.374;2023-05-15T08:52:45;99262.90;;;14.70;100.00
37304;BME280;23188;51.188;16.374;2023-05-15T08:56:49;99263.08;;;14.59;100.00
37304;BME280;23188;51.188;16.374;2023-05-15T09:01:16;99259.13;;;14.58;100.00
37304;BME280;23188;51.188;16.374;2023-05-15T09:05:18;99259.08;;;14.72;100.00
37304;BME280;23188;51.188;16.374;2023-05-15T09:14:13;99266.06;;;14.86;100.00
37304;BME280;23188;51.188;16.374;2023-05-15T09:18:15;99266.77;;;15.05;100.00
37304;BME280;23188;51.188;16.374;2023-05-15T09:22:20;99262.77;;;15.27;100.00
37304;BME280;23188;51.188;16.374;2023-05-15T09:26:24;99260.02;;;15.48;100.00
37304;BME280;23188;51.188;16.374;2023-05-15T09:30:26;99257.36;;;15.48;100.00
37304;BME280;23188;51.188;16.374;2023-05-15T09:34:32;99257.50;;;15.54;100.00
37304;BME280;23188;51.188;16.374;2023-05-15T09:38:39;99261.27;;;15.64;100.00
37304;BME280;23188;51.188;16.374;2023-05-15T09:42:50;99262.79;;;15.69;100.00
37304;BME280;23188;51.188;16.374;2023-05-15T09:46:52;99262.20;;;15.74;100.00
37304;BME280;23188;51.188;16.374;2023-05-15T09:50:53;99260.17;;;15.70;100.00
37304;BME280;23188;51.188;16.374;2023-05-15T09:54:56;99262.98;;;15.66;100.00
37304;BME280;23188;51.188;16.374;2023-05-15T09:58:58;99263.30;;;15.62;100.00
37304;BME280;23188;51.188;16.374;2023-05-15T10:03:03;99263.83;;;15.58;100.00
37304;BME280;23188;51.188;16.374;2023-05-15T10:07:06;99266.27;;;15.59;100.00
37304;BME280;23188;51.188;16.374;2023-05-15T10:11:09;99267.60;;;15.64;100.00
37304;BME280;23188;51.188;16.374;2023-05-15T10:15:12;99261.95;;;15.69;100.00
37304;BME280;23188;51.188;16.374;2023-05-15T10:19:14;99261.02;;;15.69;100.00
37304;BME280;23188;51.188;16.374;2023-05-15T10:23:17;99254.79;;;15.84;100.00
37304;BME280;23188;51.188;16.374;2023-05-15T10:27:20;99247.66;;;16.02;100.00
37304;BME280;23188;51.188;16.374;2023-05-15T10:31:24;99248.92;;;16.05;100.00
37304;BME280;23188;51.188;16.374;2023-05-15T10:35:25;99246.90;;;16.04;100.00
37304;BME280;23188;51.188;16.374;2023-05-15T10:39:28;99244.59;;;15.89;100.00
37304;BME280;23188;51.188;16.374;2023-05-15T11:10:43;99237.29;;;16.81;100.00
37304;BME280;23188;51.188;16.374;2023-05-15T11:19:23;99231.02;;;17.12;100.00
37304;BME280;23188;51.188;16.374;2023-05-15T11:23:25;99234.05;;;17.15;100.00
37304;BME280;23188;51.188;16.374;2023-05-15T11:31:31;99220.33;;;17.20;100.00
37304;BME280;23188;51.188;16.374;2023-05-15T11:39:43;99210.42;;;17.49;100.00
37304;BME280;23188;51.188;16.374;2023-05-15T11:43:44;99206.17;;;17.51;100.00
37304;BME280;23188;51.188;16.374;2023-05-15T11:47:46;99207.96;;;17.45;100.00
37304;BME280;23188;51.188;16.374;2023-05-15T11:51:49;99208.27;;;17.14;100.00
37304;BME280;23188;51.188;16.374;2023-05-15T11:55:52;99214.05;;;16.62;100.00
37304;BME280;23188;51.188;16.374;2023-05-15T11:59:54;99208.05;;;16.28;100.00
37304;BME280;23188;51.188;16.374;2023-05-15T12:03:56;99216.58;;;15.85;100.00
37304;BME280;23188;51.188;16.374;2023-05-15T12:07:59;99218.01;;;15.70;100.00
37304;BME280;23188;51.188;16.374;2023-05-15T12:12:11;99220.83;;;15.59;100.00
37304;BME280;23188;51.188;16.374;2023-05-15T12:16:13;99219.62;;;15.73;100.00
37304;BME280;23188;51.188;16.374;2023-05-15T12:20:17;99212.15;;;15.94;100.00
37304;BME280;23188;51.188;16.374;2023-05-15T12:24:19;99207.84;;;16.09;100.00
37304;BME280;23188;51.188;16.374;2023-05-15T12:28:21;99205.57;;;16.39;100.00
37304;BME280;23188;51.188;16.374;2023-05-15T12:32:23;99210.75;;;16.48;100.00
37304;BME280;23188;51.188;16.374;2023-05-15T12:36:26;99207.61;;;16.52;100.00
37304;BME280;23188;51.188;16.374;2023-05-15T12:45:26;99210.11;;;16.02;100.00
37304;BME280;23188;51.188;16.374;2023-05-15T12:49:27;99214.60;;;15.73;100.00
37304;BME280;23188;51.188;16.374;2023-05-15T12:53:30;99221.36;;;15.53;100.00
37304;BME280;23188;51.188;16.374;2023-05-15T12:57:32;99226.89;;;15.15;100.00
37304;BME280;23188;51.188;16.374;2023-05-15T13:01:36;99232.52;;;14.93;100.00
37304;BME280;23188;51.188;16.374;2023-05-15T13:10:55;99228.34;;;14.82;100.00
37304;BME280;23188;51.188;16.374;2023-05-15T13:14:57;99229.02;;;14.64;100.00
37304;BME280;23188;51.188;16.374;2023-05-15T13:19:01;99226.97;;;14.60;100.00
37304;BME280;23188;51.188;16.374;2023-05-15T13:23:03;99227.56;;;14.67;100.00
37304;BME280;23188;51.188;16.374;2023-05-15T13:27:05;99231.95;;;14.51;100.00
37304;BME280;23188;51.188;16.374;2023-05-15T13:45:18;99229.46;;;14.24;100.00
37304;BME280;23188;51.188;16.374;2023-05-15T13:49:20;99232.83;;;14.14;100.00
37304;BME280;23188;51.188;16.374;2023-05-15T13:53:51;99230.39;;;14.16;100.00
37304;BME280;23188;51.188;16.374;2023-05-15T13:57:53;99228.83;;;14.37;100.00
37304;BME280;23188;51.188;16.374;2023-05-15T14:01:55;99236.14;;;14.61;100.00
37304;BME280;23188;51.188;16.374;2023-05-15T14:05:56;99233.44;;;14.72;100.00
37304;BME280;23188;51.188;16.374;2023-05-15T14:09:58;99239.52;;;14.95;100.00
37304;BME280;23188;51.188;16.374;2023-05-15T14:13:59;99245.91;;;15.03;100.00
37304;BME280;23188;51.188;16.374;2023-05-15T14:18:01;99245.11;;;14.87;100.00
37304;BME280;23188;51.188;16.374;2023-05-15T14:22:03;99244.67;;;14.91;100.00
37304;BME280;23188;51.188;16.374;2023-05-15T14:35:56;99254.27;;;15.00;100.00
37304;BME280;23188;51.188;16.374;2023-05-15T14:40:19;99258.14;;;15.02;100.00
37304;BME280;23188;51.188;16.374;2023-05-15T14:58:16;99262.55;;;15.40;100.00
37304;BME280;23188;51.188;16.374;2023-05-15T15:02:44;99266.36;;;15.60;100.00
37304;BME280;23188;51.188;16.374;2023-05-15T15:06:50;99257.58;;;15.77;100.00
37304;BME280;23188;51.188;16.374;2023-05-15T15:10:56;99253.52;;;15.81;100.00
37304;BME280;23188;51.188;16.374;2023-05-15T15:23:49;99256.19;;;15.92;100.00
37304;BME280;23188;51.188;16.374;2023-05-15T15:27:51;99257.26;;;16.10;100.00
37304;BME280;23188;51.188;16.374;2023-05-15T15:31:53;99254.34;;;16.22;100.00
37304;BME280;23188;51.188;16.374;2023-05-15T15:35:54;99247.54;;;16.33;100.00
37304;BME280;23188;51.188;16.374;2023-05-15T15:39:57;99243.20;;;16.42;100.00
37304;BME280;23188;51.188;16.374;2023-05-15T15:44:00;99245.53;;;16.62;100.00
37304;BME280;23188;51.188;16.374;2023-05-15T15:48:01;99241.55;;;16.96;100.00
37304;BME280;23188;51.188;16.374;2023-05-15T15:52:09;99236.45;;;17.33;100.00
37304;BME280;23188;51.188;16.374;2023-05-15T15:56:10;99234.86;;;17.68;100.00
37304;BME280;23188;51.188;16.374;2023-05-15T16:00:14;99228.84;;;17.87;100.00
37304;BME280;23188;51.188;16.374;2023-05-15T16:04:16;99224.39;;;17.99;99.88
37304;BME280;23188;51.188;16.374;2023-05-15T16:08:17;99225.89;;;18.17;100.00
37304;BME280;23188;51.188;16.374;2023-05-15T16:12:19;99221.80;;;18.35;98.96
37304;BME280;23188;51.188;16.374;2023-05-15T16:16:21;99224.29;;;18.33;97.74
37304;BME280;23188;51.188;16.374;2023-05-15T16:20:22;99221.36;;;18.41;97.25
37304;BME280;23188;51.188;16.374;2023-05-15T16:24:24;99224.94;;;18.28;95.09
37304;BME280;23188;51.188;16.374;2023-05-15T16:28:26;99228.92;;;18.11;94.52
37304;BME280;23188;51.188;16.374;2023-05-15T16:32:28;99232.59;;;17.84;95.75
37304;BME280;23188;51.188;16.374;2023-05-15T16:36:29;99233.95;;;17.54;97.40
37304;BME280;23188;51.188;16.374;2023-05-15T16:40:31;99232.54;;;17.28;99.88
37304;BME280;23188;51.188;16.374;2023-05-15T16:44:33;99234.09;;;17.04;100.00
37304;BME280;23188;51.188;16.374;2023-05-15T16:48:35;99242.14;;;16.91;100.00
37304;BME280;23188;51.188;16.374;2023-05-15T16:52:37;99245.29;;;16.80;100.00
37304;BME280;23188;51.188;16.374;2023-05-15T16:56:39;99251.14;;;16.75;100.00
37304;BME280;23188;51.188;16.374;2023-05-15T17:00:42;99250.20;;;16.68;100.00
37304;BME280;23188;51.188;16.374;2023-05-15T17:04:44;99254.54;;;16.66;100.00
37304;BME280;23188;51.188;16.374;2023-05-15T17:08:45;99262.37;;;16.65;100.00
37304;BME280;23188;51.188;16.374;2023-05-15T17:12:47;99266.05;;;16.57;100.00
37304;BME280;23188;51.188;16.374;2023-05-15T17:16:48;99273.53;;;16.47;100.00
37304;BME280;23188;51.188;16.374;2023-05-15T17:20:50;99271.77;;;16.48;100.00
37304;BME280;23188;51.188;16.374;2023-05-15T17:24:51;99275.77;;;16.40;100.00
37304;BME280;23188;51.188;16.374;2023-05-15T17:33:20;99292.56;;;16.24;100.00
37304;BME280;23188;51.188;16.374;2023-05-15T17:37:23;99301.27;;;16.16;100.00
37304;BME280;23188;51.188;16.374;2023-05-15T17:41:25;99303.81;;;16.04;100.00
37304;BME280;23188;51.188;16.374;2023-05-15T17:45:38;99314.14;;;15.80;100.00
37304;BME280;23188;51.188;16.374;2023-05-15T17:49:39;99314.20;;;15.71;100.00
37304;BME280;23188;51.188;16.374;2023-05-15T17:53:41;99315.60;;;15.59;100.00
37304;BME280;23188;51.188;16.374;2023-05-15T17:57:42;99315.33;;;15.48;100.00
37304;BME280;23188;51.188;16.374;2023-05-15T18:01:51;99319.52;;;15.34;100.00
37304;BME280;23188;51.188;16.374;2023-05-15T18:05:53;99321.09;;;15.17;100.00
37304;BME280;23188;51.188;16.374;2023-05-15T18:09:55;99330.34;;;15.02;100.00
37304;BME280;23188;51.188;16.374;2023-05-15T18:13:57;99342.52;;;14.83;100.00
37304;BME280;23188;51.188;16.374;2023-05-15T18:17:59;99352.67;;;14.73;100.00
37304;BME280;23188;51.188;16.374;2023-05-15T18:22:00;99357.12;;;14.68;100.00
37304;BME280;23188;51.188;16.374;2023-05-15T18:26:03;99364.79;;;14.68;100.00
37304;BME280;23188;51.188;16.374;2023-05-15T18:30:11;99370.51;;;14.68;100.00
37304;BME280;23188;51.188;16.374;2023-05-15T18:34:12;99376.75;;;14.56;100.00
37304;BME280;23188;51.188;16.374;2023-05-15T18:38:14;99380.55;;;14.20;100.00
37304;BME280;23188;51.188;16.374;2023-05-15T18:42:44;99383.24;;;14.13;100.00
37304;BME280;23188;51.188;16.374;2023-05-15T18:46:46;99380.36;;;14.16;100.00
37304;BME280;23188;51.188;16.374;2023-05-15T18:50:47;99387.80;;;14.16;100.00
37304;BME280;23188;51.188;16.374;2023-05-15T18:54:49;99387.74;;;14.02;100.00
37304;BME280;23188;51.188;16.374;2023-05-15T18:58:53;99391.98;;;13.91;100.00
37304;BME280;23188;51.188;16.374;2023-05-15T19:02:54;99400.16;;;13.82;100.00
37304;BME280;23188;51.188;16.374;2023-05-15T19:06:56;99406.50;;;13.82;100.00
37304;BME280;23188;51.188;16.374;2023-05-15T19:10:58;99407.15;;;13.79;100.00
37304;BME280;23188;51.188;16.374;2023-05-15T19:15:02;99412.20;;;13.78;100.00
37304;BME280;23188;51.188;16.374;2023-05-15T19:19:04;99415.54;;;13.79;100.00
37304;BME280;23188;51.188;16.374;2023-05-15T19:23:07;99419.14;;;13.73;100.00
37304;BME280;23188;51.188;16.374;2023-05-15T19:27:10;99414.90;;;13.70;100.00
37304;BME280;23188;51.188;16.374;2023-05-15T19:31:11;99411.73;;;13.68;100.00
37304;BME280;23188;51.188;16.374;2023-05-15T19:35:28;99415.07;;;13.68;100.00
37304;BME280;23188;51.188;16.374;2023-05-15T19:39:30;99415.20;;;13.67;100.00
37304;BME280;23188;51.188;16.374;2023-05-15T19:43:33;99419.95;;;13.64;100.00
37304;BME280;23188;51.188;16.374;2023-05-15T19:47:56;99417.31;;;13.66;100.00
37304;BME280;23188;51.188;16.374;2023-05-15T19:51:57;99418.02;;;13.66;100.00
37304;BME280;23188;51.188;16.374;2023-05-15T19:55:59;99416.60;;;13.59;100.00
37304;BME280;23188;51.188;16.374;2023-05-15T20:00:00;99420.47;;;13.49;100.00
37304;BME280;23188;51.188;16.374;2023-05-15T20:04:02;99428.59;;;13.38;100.00
37304;BME280;23188;51.188;16.374;2023-05-15T20:08:04;99431.74;;;13.27;100.00
37304;BME280;23188;51.188;16.374;2023-05-15T20:12:05;99436.32;;;13.17;100.00
37304;BME280;23188;51.188;16.374;2023-05-15T20:16:07;99436.89;;;13.08;100.00
37304;BME280;23188;51.188;16.374;2023-05-15T20:20:19;99436.10;;;13.04;100.00
37304;BME280;23188;51.188;16.374;2023-05-15T20:24:21;99438.80;;;13.00;100.00
37304;BME280;23188;51.188;16.374;2023-05-15T20:28:26;99442.48;;;12.94;100.00
37304;BME280;23188;51.188;16.374;2023-05-15T20:32:30;99442.08;;;12.86;100.00
37304;BME280;23188;51.188;16.374;2023-05-15T20:36:32;99444.35;;;12.76;100.00
37304;BME280;23188;51.188;16.374;2023-05-15T20:40:34;99452.41;;;12.67;100.00
37304;BME280;23188;51.188;16.374;2023-05-15T20:44:35;99454.36;;;12.60;100.00
37304;BME280;23188;51.188;16.374;2023-05-15T20:48:39;99453.39;;;12.56;100.00
37304;BME280;23188;51.188;16.374;2023-05-15T20:52:40;99458.48;;;12.53;100.00
37304;BME280;23188;51.188;16.374;2023-05-15T20:56:42;99458.27;;;12.51;100.00
37304;BME280;23188;51.188;16.374;2023-05-15T21:00:52;99458.71;;;12.52;100.00
37304;BME280;23188;51.188;16.374;2023-05-15T21:04:54;99454.65;;;12.49;100.00
37304;BME280;23188;51.188;16.374;2023-05-15T21:08:55;99452.37;;;12.47;100.00
37304;BME280;23188;51.188;16.374;2023-05-15T21:12:57;99446.94;;;12.46;100.00
37304;BME280;23188;51.188;16.374;2023-05-15T21:17:00;99449.65;;;12.47;100.00
37304;BME280;23188;51.188;16.374;2023-05-15T21:21:01;99452.38;;;12.45;100.00
37304;BME280;23188;51.188;16.374;2023-05-15T21:25:20;99455.79;;;12.39;100.00
37304;BME280;23188;51.188;16.374;2023-05-15T21:29:22;99456.98;;;12.38;100.00
37304;BME280;23188;51.188;16.374;2023-05-15T21:33:27;99462.83;;;12.38;100.00
37304;BME280;23188;51.188;16.374;2023-05-15T21:37:29;99457.96;;;12.38;100.00
37304;BME280;23188;51.188;16.374;2023-05-15T21:41:34;99460.54;;;12.45;100.00
37304;BME280;23188;51.188;16.374;2023-05-15T21:45:36;99464.79;;;12.47;100.00
37304;BME280;23188;51.188;16.374;2023-05-15T21:49:37;99463.06;;;12.43;100.00
37304;BME280;23188;51.188;16.374;2023-05-15T21:53:43;99468.27;;;12.35;100.00
37304;BME280;23188;51.188;16.374;2023-05-15T21:57:45;99467.12;;;12.29;100.00
37304;BME280;23188;51.188;16.374;2023-05-15T22:01:46;99468.98;;;12.28;100.00
37304;BME280;23188;51.188;16.374;2023-05-15T22:05:48;99470.91;;;12.25;100.00
37304;BME280;23188;51.188;16.374;2023-05-15T22:09:53;99471.05;;;12.22;100.00
37304;BME280;23188;51.188;16.374;2023-05-15T22:13:54;99472.02;;;12.19;100.00
37304;BME280;23188;51.188;16.374;2023-05-15T22:17:56;99474.84;;;12.18;100.00
37304;BME280;23188;51.188;16.374;2023-05-15T22:22:00;99473.65;;;12.15;100.00
37304;BME280;23188;51.188;16.374;2023-05-15T22:26:03;99471.66;;;12.10;100.00
37304;BME280;23188;51.188;16.374;2023-05-15T22:30:05;99474.36;;;11.99;100.00
37304;BME280;23188;51.188;16.374;2023-05-15T22:34:07;99478.05;;;11.96;100.00
37304;BME280;23188;51.188;16.374;2023-05-15T22:38:08;99480.73;;;11.89;100.00
37304;BME280;23188;51.188;16.374;2023-05-15T22:42:09;99484.23;;;11.82;100.00
37304;BME280;23188;51.188;16.374;2023-05-15T22:46:20;99484.51;;;11.79;100.00
37304;BME280;23188;51.188;16.374;2023-05-15T22:50:22;99486.10;;;11.74;100.00
37304;BME280;23188;51.188;16.374;2023-05-15T22:54:26;99488.98;;;11.71;100.00
37304;BME280;23188;51.188;16.374;2023-05-15T22:58:28;99495.70;;;11.76;100.00
37304;BME280;23188;51.188;16.374;2023-05-15T23:02:41;99495.50;;;11.79;100.00
37304;BME280;23188;51.188;16.374;2023-05-15T23:06:45;99501.17;;;11.78;100.00
37304;BME280;23188;51.188;16.374;2023-05-15T23:10:47;99501.98;;;11.67;100.00